Atmautluak, Alaska
Current Conditions -  °F | °C
As of 1:09 AM on Tuesday 21 Oct 2014 (Local Time) from PABE Reporting Station
Light Snow Light Snow  
Wind Chill: 21°   Ceiling: 1500
Heat Index: 28°   Visibility: 3mi
Dew Point: 28°   Wind: 7mph
Humidity: 100%   Direction: 340°NNW
Pressure: 29.23"   Gusts: NA
Location:  60.7494°N, 161.727°W
Report Text: PABE 210909Z 34006KT 3SM -SN BR FEW006 BKN015 OVC030 M02/M02 A2923 RMK AO2 P0000 T10221022
Loading
Personal Weather Stations






























Interactive Weather Map
Tropical Storm Tracking
New forecast layout! Learn more

10-Day Weather Forecast

Advertisements
Track Severe Weather on mobile